Time;durP1;ratioP1;P1;durP2;ratioP2;P2;SDS_P1;SDS_P2;PMS_P1;PMS_P2;Temp;Humidity;BMP_temperature;BMP_pressure;BME280_temperature;BME280_humidity;BME280_pressure;Samples;Min_cycle;Max_cycle;Signal;HPM_P1;HPM_P2
2023/12/11 00:00:06;;;;;;;2.77;1.13;;;9.60;93.90;;;11.18;62.20;96624.06;5031733;28;20057;-62
2023/12/11 00:02:34;;;;;;;1.63;0.70;;;9.60;94.00;;;11.18;62.24;96624.88;5030629;28;20060;-62
2023/12/11 00:05:02;;;;;;;0.43;0.40;;;9.70;94.80;;;11.22;62.24;96633.31;5031831;28;20053;-63
2023/12/11 00:07:30;;;;;;;1.00;0.60;;;9.70;93.70;;;11.18;62.30;96627.53;5029635;28;20055;-62
2023/12/11 00:09:58;;;;;;;0.40;0.40;;;9.70;94.70;;;11.19;63.02;96639.06;5031595;28;20520;-62
2023/12/11 00:12:25;;;;;;;1.57;0.43;;;9.80;94.40;;;11.22;62.92;96618.19;5031762;28;20505;-62
2023/12/11 00:14:53;;;;;;;0.50;0.50;;;9.90;93.70;;;11.23;63.32;96617.16;5032052;28;20049;-62
2023/12/11 00:17:24;;;;;;;1.70;1.27;;;9.80;93.90;;;11.25;62.67;96605.50;5031023;28;20052;-62
2023/12/11 00:19:51;;;;;;;0.60;0.40;;;9.80;93.00;;;11.27;62.56;96606.13;5030055;28;20065;-62
2023/12/11 00:22:19;;;;;;;0.50;0.40;;;9.80;92.70;;;11.29;62.57;96614.75;5031368;28;20099;-62
2023/12/11 00:24:47;;;;;;;0.60;0.60;;;9.90;92.70;;;11.31;62.90;96613.53;5029927;28;20056;-62
2023/12/11 00:27:14;;;;;;;0.53;0.40;;;9.90;92.40;;;11.34;62.47;96613.16;5031051;28;20045;-62
2023/12/11 00:29:42;;;;;;;0.87;0.67;;;9.90;91.70;;;11.34;62.65;96622.97;5031105;28;20048;-62
2023/12/11 00:32:10;;;;;;;0.63;0.30;;;10.00;92.00;;;11.37;62.72;96630.59;5031199;28;20421;-62
2023/12/11 00:34:38;;;;;;;0.70;0.50;;;10.00;91.30;;;11.42;62.37;96629.03;5031310;28;20041;-62
2023/12/11 00:37:06;;;;;;;0.77;0.57;;;10.10;91.20;;;11.50;62.27;96635.25;5030818;28;20049;-62
2023/12/11 00:39:33;;;;;;;0.77;0.30;;;10.10;90.90;;;11.55;62.54;96641.63;5030910;28;20041;-62
2023/12/11 00:42:01;;;;;;;1.27;1.17;;;10.10;91.00;;;11.60;62.56;96641.88;5030979;28;20406;-61
2023/12/11 00:44:29;;;;;;;0.47;0.47;;;10.20;90.90;;;11.65;62.15;96649.31;5031289;28;20038;-62
2023/12/11 00:46:56;;;;;;;0.40;0.40;;;10.20;90.80;;;11.71;62.18;96642.38;5030226;28;20037;-61
2023/12/11 00:49:24;;;;;;;0.70;0.70;;;10.30;90.80;;;11.71;62.03;96643.22;5030925;28;20041;-62
2023/12/11 00:51:54;;;;;;;2.20;1.20;;;10.20;91.70;;;11.68;62.53;96654.25;5030732;28;20538;-62
2023/12/11 00:54:22;;;;;;;0.70;0.50;;;10.20;91.70;;;11.71;62.63;96661.03;5029780;28;20052;-62
2023/12/11 00:56:50;;;;;;;1.37;0.50;;;10.20;92.50;;;11.71;62.40;96661.88;5030537;28;20045;-62
2023/12/11 00:59:18;;;;;;;0.83;0.57;;;10.20;92.30;;;11.73;62.65;96664.31;5030823;28;20045;-62
2023/12/11 01:01:45;;;;;;;2.20;1.27;;;10.20;92.40;;;11.75;62.48;96660.47;5021656;28;20061;-62
2023/12/11 01:04:13;;;;;;;2.33;0.97;;;10.20;92.60;;;11.76;62.66;96650.63;5030547;28;20049;-62
2023/12/11 01:06:41;;;;;;;3.13;1.07;;;10.20;91.90;;;11.77;62.37;96660.28;5029051;28;20041;-62
2023/12/11 01:09:09;;;;;;;1.93;1.10;;;10.20;92.50;;;11.79;62.15;96667.06;5031024;28;20050;-62
2023/12/11 01:11:36;;;;;;;1.50;1.17;;;10.20;92.20;;;11.81;62.30;96658.88;5029300;28;20053;-62
2023/12/11 01:14:04;;;;;;;1.27;1.00;;;10.20;92.40;;;11.82;62.28;96669.38;5030528;28;20064;-62
2023/12/11 01:16:32;;;;;;;0.90;0.57;;;10.20;92.30;;;11.82;62.19;96661.38;5029474;28;20041;-62
2023/12/11 01:18:59;;;;;;;5.07;1.60;;;10.20;91.70;;;11.83;62.43;96649.66;5030696;28;20408;-62
2023/12/11 01:21:27;;;;;;;1.73;0.50;;;10.30;91.90;;;11.83;62.35;96654.19;5030500;28;20049;-62
2023/12/11 01:23:55;;;;;;;1.53;0.70;;;10.30;91.80;;;11.85;62.46;96646.81;5029141;28;20048;-62
2023/12/11 01:26:24;;;;;;;2.03;1.00;;;10.30;91.10;;;11.82;62.29;96644.50;5030310;28;20034;-62
2023/12/11 01:28:52;;;;;;;1.13;0.40;;;10.30;91.10;;;11.79;62.40;96636.91;5030678;28;20048;-62
2023/12/11 01:31:19;;;;;;;0.80;0.50;;;10.30;91.60;;;11.69;62.83;96636.41;5030669;28;20746;-62
2023/12/11 01:33:47;;;;;;;1.73;0.67;;;10.30;91.50;;;11.63;63.40;96638.00;5030702;28;20513;-62
2023/12/11 01:36:15;;;;;;;0.73;0.70;;;10.30;91.30;;;11.63;63.47;96646.84;5028916;28;20432;-62
2023/12/11 01:38:42;;;;;;;0.47;0.47;;;10.30;91.00;;;11.55;64.20;96646.97;5030578;28;20048;-62
2023/12/11 01:41:10;;;;;;;0.80;0.60;;;10.40;91.80;;;11.53;64.32;96642.84;5029301;28;20046;-62
2023/12/11 01:43:37;;;;;;;1.43;0.90;;;10.40;91.90;;;11.51;64.52;96642.22;5030240;28;20584;-62
2023/12/11 01:46:13;;;;;;;1.30;0.90;;;10.40;92.10;;;11.63;64.04;96649.50;5030626;28;20058;-62
2023/12/11 01:48:41;;;;;;;1.40;0.70;;;10.40;91.70;;;11.70;64.02;96648.75;5027697;28;20041;-62
2023/12/11 01:51:11;;;;;;;1.20;0.82;;;10.50;91.80;;;11.66;64.00;96658.94;5030391;28;20042;-62
2023/12/11 01:53:39;;;;;;;2.20;0.83;;;10.50;91.80;;;11.68;63.96;96659.59;5030470;28;20048;-62
2023/12/11 01:56:08;;;;;;;0.57;0.57;;;10.40;91.60;;;11.73;63.48;96662.50;5029019;28;20048;-61
2023/12/11 01:58:37;;;;;;;0.60;0.40;;;10.40;91.20;;;11.65;64.09;96660.00;5030866;28;20053;-62
2023/12/11 02:01:08;;;;;;;1.40;0.60;;;10.40;91.50;;;11.64;63.73;96669.00;5033584;28;20049;-62
2023/12/11 02:03:37;;;;;;;1.90;1.00;;;10.40;91.60;;;11.65;63.86;96652.00;5033504;28;20045;-62
2023/12/11 02:06:05;;;;;;;1.87;0.70;;;10.30;91.60;;;11.69;63.34;96655.91;5032342;28;20041;-62
2023/12/11 02:08:33;;;;;;;1.70;0.60;;;10.30;91.20;;;11.61;63.83;96656.88;5033756;28;20048;-62
2023/12/11 02:11:03;;;;;;;0.60;0.50;;;10.30;91.00;;;11.67;63.27;96655.28;5032254;28;20045;-62
2023/12/11 02:13:32;;;;;;;2.47;0.53;;;10.40;90.40;;;11.71;63.08;96661.03;5033649;28;20041;-62
2023/12/11 02:16:00;;;;;;;3.47;0.70;;;10.30;90.50;;;11.73;62.89;96661.66;5032102;28;20417;-62
2023/12/11 02:18:27;;;;;;;0.50;0.43;;;10.30;90.20;;;11.77;63.12;96641.63;5033434;28;20053;-62
2023/12/11 02:20:55;;;;;;;1.23;0.50;;;10.30;89.80;;;11.77;63.19;96645.09;5033952;28;20049;-62
2023/12/11 02:23:42;;;;;;;1.13;0.60;;;10.30;89.50;;;11.80;62.70;96644.69;5033519;28;20041;-62
2023/12/11 02:26:15;;;;;;;0.97;0.70;;;10.40;89.10;;;11.86;62.77;96659.09;5031587;28;20045;-62
2023/12/11 02:28:43;;;;;;;1.17;0.55;;;10.40;88.40;;;11.88;62.49;96653.59;5033451;28;20049;-62
2023/12/11 02:31:11;;;;;;;2.37;0.60;;;10.50;87.80;;;11.88;62.31;96649.06;5033387;28;20049;-62
2023/12/11 02:33:40;;;;;;;1.30;0.67;;;10.50;87.30;;;11.91;62.18;96647.91;5033293;28;20041;-62
2023/12/11 02:36:08;;;;;;;3.25;0.73;;;10.50;86.80;;;11.93;62.26;96649.34;5032826;28;20049;-61
2023/12/11 02:38:35;;;;;;;2.58;0.50;;;10.50;86.60;;;11.97;62.08;96649.81;5033488;28;20049;-62
2023/12/11 02:41:04;;;;;;;1.00;0.47;;;10.50;86.40;;;11.95;62.04;96646.50;5032625;28;20156;-62
2023/12/11 02:43:31;;;;;;;1.33;0.40;;;10.50;86.00;;;11.88;61.64;96651.75;5032987;28;20049;-62
2023/12/11 02:45:59;;;;;;;0.50;0.47;;;10.50;85.70;;;11.87;61.66;96643.97;5032608;28;20041;-62
2023/12/11 02:48:27;;;;;;;0.80;0.60;;;10.60;85.40;;;11.89;61.90;96653.44;5031672;28;20041;-62
2023/12/11 02:50:54;;;;;;;1.13;0.93;;;10.60;85.40;;;11.92;61.60;96654.88;5032334;28;20049;-62
2023/12/11 02:53:22;;;;;;;1.87;0.70;;;10.60;84.90;;;11.79;62.27;96643.06;5024379;28;20049;-62
2023/12/11 02:55:49;;;;;;;0.53;0.50;;;10.60;86.00;;;11.87;61.86;96644.78;5032567;28;20040;-62
2023/12/11 02:58:17;;;;;;;1.93;0.70;;;10.60;85.90;;;11.94;61.92;96642.16;5032590;28;20045;-62
2023/12/11 03:00:45;;;;;;;0.77;0.70;;;10.60;85.90;;;11.97;61.85;96645.28;5032836;28;20041;-62
2023/12/11 03:03:12;;;;;;;0.77;0.50;;;10.70;86.00;;;11.97;62.14;96639.13;5031420;28;20125;-62
2023/12/11 03:05:40;;;;;;;2.63;1.00;;;10.70;86.50;;;12.01;62.17;96643.06;5031450;28;20046;-62
2023/12/11 03:08:08;;;;;;;0.40;0.40;;;10.70;86.80;;;12.01;62.65;96630.53;5031152;28;20045;-61
2023/12/11 03:10:35;;;;;;;1.87;1.17;;;10.80;87.50;;;11.99;62.80;96645.09;5031137;28;20097;-62
2023/12/11 03:13:03;;;;;;;0.50;0.50;;;10.70;88.00;;;12.05;62.49;96644.31;5031247;28;20049;-62
2023/12/11 03:15:31;;;;;;;0.93;0.60;;;10.70;88.00;;;12.08;62.67;96638.59;5032568;28;20394;-62
2023/12/11 03:18:00;;;;;;;1.13;0.53;;;10.70;89.40;;;12.13;62.46;96638.00;5032226;28;20052;-61
2023/12/11 03:20:28;;;;;;;2.37;0.60;;;10.70;90.30;;;12.18;62.57;96638.25;5022997;28;20417;-61
2023/12/11 03:22:55;;;;;;;1.20;0.40;;;10.70;90.50;;;12.17;62.45;96644.59;5032098;28;20068;-62
2023/12/11 03:25:23;;;;;;;1.07;0.57;;;10.60;90.40;;;12.17;62.46;96644.59;5032227;28;20505;-61
2023/12/11 03:27:51;;;;;;;0.67;0.40;;;10.60;91.10;;;12.17;62.59;96639.25;5031664;28;20049;-61
2023/12/11 03:30:18;;;;;;;0.67;0.53;;;10.50;91.30;;;12.15;62.93;96643.97;5032141;28;20045;-62
2023/12/11 03:32:46;;;;;;;0.50;0.43;;;10.50;92.20;;;12.13;62.55;96638.00;5032107;28;20033;-62
2023/12/11 03:35:13;;;;;;;0.40;0.40;;;10.40;92.60;;;12.12;62.81;96647.03;5031986;28;20052;-62
2023/12/11 03:37:41;;;;;;;1.40;0.50;;;10.40;92.80;;;12.11;62.82;96648.03;5031880;28;20481;-61
2023/12/11 03:40:10;;;;;;;0.30;0.30;;;10.40;93.00;;;12.08;62.90;96638.59;5030657;28;20421;-62
2023/12/11 03:42:37;;;;;;;0.40;0.30;;;10.30;93.80;;;12.07;63.01;96636.94;5032038;28;20053;-61
2023/12/11 03:45:05;;;;;;;0.40;0.40;;;10.30;94.00;;;12.03;63.10;96627.66;5031651;28;20492;-62
2023/12/11 03:47:33;;;;;;;0.40;0.20;;;10.20;94.40;;;12.00;62.93;96620.91;5031534;28;20519;-61
2023/12/11 03:50:01;;;;;;;0.80;0.57;;;10.20;94.40;;;11.99;63.02;96615.75;5031080;28;20056;-61
2023/12/11 03:52:29;;;;;;;0.30;0.30;;;10.20;94.50;;;11.96;63.09;96610.78;5031747;28;20034;-61
2023/12/11 03:54:57;;;;;;;0.90;0.57;;;10.30;94.30;;;11.93;63.22;96606.69;5031690;28;20112;-62
2023/12/11 03:57:24;;;;;;;0.43;0.30;;;10.20;94.90;;;11.91;63.13;96619.38;5031126;28;20045;-62
2023/12/11 03:59:52;;;;;;;0.20;0.20;;;10.20;94.90;;;11.92;63.43;96617.53;5031807;28;20037;-62
2023/12/11 04:02:20;;;;;;;0.77;0.57;;;10.20;95.30;;;11.91;63.29;96614.06;5031541;28;20041;-62
2023/12/11 04:04:47;;;;;;;2.30;0.40;;;10.20;95.60;;;11.89;63.39;96604.56;5031467;28;20503;-62
2023/12/11 04:07:15;;;;;;;1.33;0.60;;;10.10;95.90;;;11.88;63.57;96610.91;5030190;28;20049;-61
2023/12/11 04:09:43;;;;;;;0.60;0.60;;;10.10;95.90;;;11.83;63.55;96603.50;5031522;28;20520;-62
2023/12/11 04:12:11;;;;;;;0.93;0.70;;;10.10;96.10;;;11.81;63.64;96595.69;5030284;28;20045;-61
2023/12/11 04:14:38;;;;;;;1.23;0.93;;;10.10;95.80;;;11.80;63.69;96593.22;5031402;28;20041;-62
2023/12/11 04:17:06;;;;;;;1.67;0.93;;;10.20;95.50;;;11.77;64.03;96599.78;5030002;28;20069;-61
2023/12/11 04:19:33;;;;;;;0.67;0.60;;;10.10;95.60;;;11.75;63.88;96593.81;5030462;28;20147;-62
2023/12/11 04:22:01;;;;;;;0.50;0.47;;;10.10;96.50;;;11.73;64.28;96601.19;5030665;28;20125;-62
2023/12/11 04:24:29;;;;;;;0.43;0.30;;;10.00;96.40;;;11.72;63.98;96609.38;5031157;28;20041;-61
2023/12/11 04:26:56;;;;;;;0.93;0.63;;;10.00;96.80;;;11.71;63.92;96621.88;5030731;28;20270;-62
2023/12/11 04:29:24;;;;;;;1.07;0.70;;;10.00;97.30;;;11.72;63.96;96612.03;5031252;28;20041;-62
2023/12/11 04:31:52;;;;;;;0.53;0.50;;;10.00;97.10;;;11.73;64.00;96627.84;5031402;28;20042;-61
2023/12/11 04:34:19;;;;;;;0.30;0.30;;;10.00;96.50;;;11.72;64.23;96622.72;5030851;28;20045;-62
2023/12/11 04:36:47;;;;;;;0.20;0.20;;;10.00;96.60;;;11.71;64.33;96624.56;5031099;28;20044;-61
2023/12/11 04:39:15;;;;;;;1.10;0.60;;;10.00;96.70;;;11.68;64.26;96622.25;5031249;28;20045;-62
2023/12/11 04:41:42;;;;;;;1.57;0.87;;;9.90;97.30;;;11.66;64.16;96626.97;5030953;28;20115;-62
2023/12/11 04:44:10;;;;;;;0.53;0.40;;;9.90;97.90;;;11.66;64.17;96623.47;5030231;28;20045;-62
2023/12/11 04:46:38;;;;;;;1.50;0.50;;;9.80;97.90;;;11.64;64.54;96623.66;5030834;28;20037;-62
2023/12/11 04:49:05;;;;;;;0.67;0.43;;;9.80;98.00;;;11.64;64.36;96631.66;5029311;28;20052;-62
2023/12/11 04:51:33;;;;;;;0.40;0.40;;;9.80;98.00;;;11.67;64.40;96614.44;5031029;28;20677;-62
2023/12/11 04:54:01;;;;;;;1.27;0.80;;;9.90;98.10;;;11.68;64.47;96603.59;5031031;28;20040;-62
2023/12/11 04:56:28;;;;;;;0.63;0.40;;;9.90;97.90;;;11.67;64.42;96604.63;5030504;28;20050;-61
2023/12/11 04:58:56;;;;;;;0.73;0.60;;;9.90;97.70;;;11.69;64.58;96609.75;5031205;28;20049;-61
2023/12/11 05:01:26;;;;;;;0.93;0.60;;;9.90;98.00;;;11.70;64.50;96611.41;5030772;28;20060;-62
2023/12/11 05:03:54;;;;;;;0.67;0.40;;;9.90;97.80;;;11.71;64.45;96605.03;5030868;28;20390;-61
2023/12/11 05:06:22;;;;;;;0.53;0.40;;;9.90;97.60;;;11.71;64.66;96610.38;5030176;28;20401;-61
2023/12/11 05:08:49;;;;;;;0.40;0.40;;;10.00;97.40;;;11.70;64.04;96612.22;5030526;28;20381;-61
2023/12/11 05:11:17;;;;;;;0.70;0.50;;;10.00;97.30;;;11.71;64.52;96597.88;5030376;28;20046;-61
2023/12/11 05:13:44;;;;;;;0.77;0.60;;;10.00;96.40;;;11.71;64.16;96605.03;5030942;28;20034;-61
2023/12/11 05:16:12;;;;;;;0.97;0.60;;;9.90;96.80;;;11.71;64.25;96605.03;5030520;28;20049;-61
2023/12/11 05:18:40;;;;;;;2.90;0.70;;;10.00;96.10;;;11.69;64.24;96609.75;5030878;28;20049;-62
2023/12/11 05:21:09;;;;;;;2.90;0.57;;;10.00;95.70;;;11.69;64.19;96615.94;5029147;28;20046;-61
2023/12/11 05:23:37;;;;;;;2.57;0.57;;;10.00;95.60;;;11.71;64.37;96605.88;5029154;28;20420;-62
2023/12/11 05:26:05;;;;;;;2.50;0.80;;;10.00;95.60;;;11.71;64.14;96595.22;5030517;28;20052;-61
2023/12/11 05:28:33;;;;;;;0.60;0.60;;;10.00;95.40;;;11.71;64.17;96594.38;5030805;28;20421;-61
2023/12/11 05:31:00;;;;;;;1.07;0.97;;;9.90;95.50;;;11.72;63.92;96586.19;5030342;28;20052;-61
2023/12/11 05:33:28;;;;;;;1.10;0.63;;;10.00;94.70;;;11.74;63.79;96580.66;5031672;28;20456;-61
2023/12/11 05:35:55;;;;;;;0.90;0.70;;;10.00;94.20;;;11.75;64.11;96579.66;5034244;28;20037;-61
2023/12/11 05:38:23;;;;;;;2.00;0.67;;;10.00;93.90;;;11.76;63.85;96571.44;5034257;28;20057;-61
2023/12/11 05:40:51;;;;;;;0.90;0.80;;;10.10;94.00;;;11.77;63.59;96565.13;5034748;28;20053;-61
2023/12/11 05:43:18;;;;;;;0.80;0.70;;;10.10;93.40;;;11.78;63.62;96547.25;5033844;28;20404;-62
2023/12/11 05:45:46;;;;;;;1.50;0.70;;;10.10;93.40;;;11.79;63.43;96540.94;5033624;28;20060;-61
2023/12/11 05:48:14;;;;;;;2.70;0.70;;;10.10;92.80;;;11.79;63.28;96544.41;5034251;28;20049;-62
2023/12/11 05:50:42;;;;;;;1.03;0.50;;;10.10;92.00;;;11.78;63.01;96547.25;5033273;28;20040;-61
2023/12/11 05:53:09;;;;;;;0.80;0.47;;;10.10;92.00;;;11.74;62.94;96581.50;5034020;28;20045;-61
2023/12/11 05:55:37;;;;;;;1.40;0.40;;;10.00;91.60;;;11.70;62.90;96572.22;5033642;28;20040;-61
2023/12/11 05:58:04;;;;;;;0.80;0.60;;;9.90;91.50;;;11.68;63.03;96579.59;5032759;28;20049;-61
2023/12/11 06:00:32;;;;;;;1.05;0.65;;;9.90;91.30;;;11.63;62.94;96584.69;5034003;28;20045;-62
2023/12/11 06:03:00;;;;;;;4.30;0.73;;;9.80;91.20;;;11.59;63.18;96583.44;5032584;28;20049;-62
2023/12/11 06:05:28;;;;;;;1.55;0.50;;;9.80;91.10;;;11.57;62.98;96577.47;5033973;28;20068;-62
2023/12/11 06:07:56;;;;;;;0.70;0.63;;;9.80;91.40;;;11.56;62.99;96570.50;5033496;28;20520;-62
2023/12/11 06:10:23;;;;;;;1.40;0.77;;;9.80;90.30;;;11.55;62.88;96577.66;5033761;28;20042;-62
2023/12/11 06:12:51;;;;;;;2.33;0.73;;;9.80;90.00;;;11.56;62.89;96570.50;5033771;28;20054;-61
2023/12/11 06:15:19;;;;;;;0.63;0.50;;;9.90;90.00;;;11.58;62.41;96585.28;5033552;28;20052;-62
2023/12/11 06:17:47;;;;;;;2.47;0.70;;;9.90;89.60;;;11.58;62.66;96577.28;5033503;28;20048;-62
2023/12/11 06:20:15;;;;;;;0.67;0.47;;;10.00;88.80;;;11.63;62.47;96584.69;5033583;28;20060;-62
2023/12/11 06:22:47;;;;;;;0.70;0.70;;;10.10;88.60;;;11.67;62.17;96582.47;5032761;28;20041;-62
2023/12/11 06:25:14;;;;;;;1.20;0.80;;;10.00;88.40;;;11.67;62.22;96591.31;5029008;28;20041;-62
2023/12/11 06:27:42;;;;;;;1.20;0.70;;;10.10;88.40;;;11.66;62.37;96597.63;5033055;28;20041;-62
2023/12/11 06:30:10;;;;;;;0.82;0.52;;;10.00;88.30;;;11.68;62.07;96600.94;5033015;28;20057;-62
2023/12/11 06:32:38;;;;;;;0.60;0.47;;;10.00;88.60;;;11.68;62.07;96578.78;5033244;28;20050;-61
2023/12/11 06:35:06;;;;;;;1.03;0.57;;;10.00;88.00;;;11.66;61.91;96580.81;5033450;28;20048;-62
2023/12/11 06:37:34;;;;;;;2.83;0.90;;;10.00;87.50;;;11.63;61.81;96564.19;5032681;28;20053;-62
2023/12/11 06:40:03;;;;;;;1.13;0.60;;;10.00;87.20;;;11.62;62.02;96562.53;5033252;28;20049;-62
2023/12/11 06:42:37;;;;;;;0.40;0.37;;;10.00;87.20;;;11.61;61.68;96560.06;5032743;28;20563;-61
2023/12/11 06:45:08;;;;;;;2.87;0.70;;;10.00;86.90;;;11.59;61.57;96554.94;5032130;28;20053;-62
2023/12/11 06:47:36;;;;;;;8.60;4.73;;;10.00;86.70;;;11.61;61.60;96571.56;5032512;28;20049;-53
2023/12/11 06:50:04;;;;;;;4.43;2.03;;;9.90;86.90;;;11.62;61.59;96575.88;5032174;28;20045;-54
2023/12/11 06:52:33;;;;;;;1.77;1.30;;;10.00;87.00;;;11.62;61.75;96578.53;5032530;28;20412;-54
2023/12/11 06:55:02;;;;;;;3.23;1.40;;;10.00;86.90;;;11.63;61.89;96580.19;5031303;28;20054;-54
2023/12/11 06:57:30;;;;;;;3.13;1.90;;;9.90;86.90;;;11.61;61.63;96576.91;5032308;28;20052;-55
2023/12/11 06:59:58;;;;;;;2.57;1.43;;;9.90;86.90;;;11.65;61.59;96577.34;5033066;28;20060;-54
2023/12/11 07:02:26;;;;;;;1.30;1.07;;;10.00;87.00;;;11.67;61.65;96572.63;5031233;28;20056;-54
2023/12/11 07:04:54;;;;;;;1.33;1.23;;;10.00;86.60;;;11.65;61.47;96573.84;5033307;28;20053;-53
2023/12/11 07:07:22;;;;;;;0.93;0.70;;;9.90;86.30;;;11.63;61.17;96568.69;5032386;28;20412;-53
2023/12/11 07:09:50;;;;;;;2.33;0.80;;;9.90;86.80;;;11.64;61.24;96565.03;5024694;28;20045;-54
2023/12/11 07:12:18;;;;;;;1.03;0.70;;;10.00;86.30;;;11.63;61.30;96566.88;5032785;28;20057;-49
2023/12/11 07:14:45;;;;;;;0.80;0.67;;;10.00;86.10;;;11.61;61.40;96554.72;5032482;28;20120;-52
2023/12/11 07:17:13;;;;;;;1.00;0.63;;;9.90;86.40;;;11.60;61.32;96547.78;5032231;28;20311;-54
2023/12/11 07:19:41;;;;;;;1.20;1.10;;;9.90;86.30;;;11.60;61.22;96542.44;5032479;28;20493;-53
2023/12/11 07:22:09;;;;;;;1.23;0.60;;;9.90;85.80;;;11.59;61.44;96541.63;5031215;28;20412;-53
2023/12/11 07:24:37;;;;;;;2.77;0.83;;;10.00;85.80;;;11.59;61.08;96551.44;5032229;28;20489;-53
2023/12/11 07:27:05;;;;;;;3.13;1.00;;;10.00;85.50;;;11.58;61.18;96552.47;5031881;28;20116;-49
2023/12/11 07:29:32;;;;;;;1.70;0.70;;;10.00;85.20;;;11.58;61.32;96553.28;5032266;28;20049;-54
2023/12/11 07:32:00;;;;;;;1.40;0.80;;;10.00;84.60;;;11.62;61.45;96548.41;5031984;28;20065;-53
2023/12/11 07:34:27;;;;;;;4.97;1.30;;;10.10;84.50;;;11.66;61.01;96546.16;5032071;28;20152;-54
2023/12/11 07:36:56;;;;;;;1.47;1.00;;;10.20;84.00;;;11.68;60.80;96534.28;5031706;28;20064;-51
2023/12/11 07:39:23;;;;;;;0.90;0.50;;;10.20;83.90;;;11.71;60.96;96525.91;5032158;28;20056;-51
2023/12/11 07:41:51;;;;;;;0.67;0.60;;;10.20;83.20;;;11.71;60.63;96530.41;5028473;28;20034;-51
2023/12/11 07:44:18;;;;;;;0.93;0.60;;;10.20;83.10;;;11.71;60.78;96525.06;5024185;28;20057;-52
2023/12/11 07:46:46;;;;;;;1.57;0.70;;;10.20;83.20;;;11.71;60.39;96530.41;5024769;28;20056;-52
2023/12/11 07:49:13;;;;;;;4.00;0.77;;;10.20;82.90;;;11.74;60.44;96530.00;5025076;28;20037;-53
2023/12/11 07:51:43;;;;;;;0.87;0.87;;;10.20;82.80;;;11.75;60.51;96527.16;5027695;28;20417;-54
2023/12/11 07:54:13;;;;;;;0.93;0.85;;;10.30;82.80;;;11.77;60.50;96529.63;5027600;28;20097;-51
2023/12/11 07:56:41;;;;;;;1.07;0.67;;;10.30;82.50;;;11.77;60.26;96540.31;5028834;28;20054;-53
2023/12/11 07:59:09;;;;;;;1.80;0.73;;;10.30;82.00;;;11.78;60.25;96544.59;5031853;28;20160;-53
2023/12/11 08:01:37;;;;;;;1.97;0.63;;;10.30;82.40;;;11.80;60.13;96551.38;5031001;28;20049;-52
2023/12/11 08:04:05;;;;;;;1.90;0.90;;;10.40;81.90;;;11.81;60.03;96554.88;5031674;28;20120;-51
2023/12/11 08:06:38;;;;;;;2.83;1.33;;;10.40;81.80;;;11.82;60.00;96572.50;5030868;28;20049;-52
2023/12/11 08:09:06;;;;;;;1.03;0.80;;;10.50;81.80;;;11.86;60.22;96572.97;5030293;28;20049;-50
2023/12/11 08:11:34;;;;;;;1.53;0.77;;;10.50;81.50;;;11.90;60.29;96576.91;5029839;28;20053;-51
2023/12/11 08:14:02;;;;;;;2.73;0.90;;;10.50;81.80;;;11.93;60.11;96576.53;5031116;28;20049;-53
2023/12/11 08:16:31;;;;;;;2.80;1.07;;;10.60;81.50;;;11.95;60.13;96577.16;5030903;28;20493;-53
2023/12/11 08:18:59;;;;;;;1.10;0.70;;;10.60;81.20;;;11.96;59.88;96568.13;5030188;28;20048;-53
2023/12/11 08:21:27;;;;;;;1.30;0.83;;;10.60;81.10;;;11.97;60.12;96569.78;5030814;28;20500;-51
2023/12/11 08:23:54;;;;;;;4.13;0.60;;;10.60;81.10;;;11.96;59.77;96566.28;5031189;28;20033;-51
2023/12/11 08:26:22;;;;;;;1.20;1.13;;;10.60;81.00;;;12.01;59.85;96557.69;5030675;28;20049;-53
2023/12/11 08:28:50;;;;;;;1.60;0.87;;;10.60;80.90;;;12.06;59.76;96562.44;5030768;28;20072;-53
2023/12/11 08:31:18;;;;;;;2.73;1.00;;;10.70;80.90;;;12.07;59.94;96562.22;5018290;28;20048;-54
2023/12/11 08:33:46;;;;;;;3.10;0.70;;;10.70;80.50;;;12.09;59.50;96560.19;5025279;28;20405;-53
2023/12/11 08:36:14;;;;;;;2.50;0.97;;;10.70;80.20;;;12.11;59.41;96549.34;5024336;28;20045;-53
2023/12/11 08:38:41;;;;;;;1.47;0.73;;;10.80;79.40;;;12.14;59.01;96541.75;5024946;28;20052;-52
2023/12/11 08:41:09;;;;;;;0.90;0.57;;;10.80;79.30;;;12.18;59.17;96545.69;5023785;28;20041;-51
2023/12/11 08:43:37;;;;;;;2.53;1.13;;;10.80;78.90;;;12.20;59.05;96554.31;5025429;28;20053;-52
2023/12/11 08:46:04;;;;;;;3.33;1.93;;;10.90;79.10;;;12.22;58.73;96559.44;5024637;28;20497;-51
2023/12/11 08:48:32;;;;;;;1.30;0.97;;;10.90;78.80;;;12.29;58.85;96552.31;5025863;28;20045;-52
2023/12/11 08:51:00;;;;;;;3.70;1.00;;;11.00;78.60;;;12.34;58.65;96549.84;5025249;28;20421;-51
2023/12/11 08:53:28;;;;;;;1.73;1.02;;;11.00;78.30;;;12.37;58.69;96551.31;5025906;28;20033;-53
2023/12/11 08:55:55;;;;;;;2.30;0.90;;;11.10;78.00;;;12.37;58.52;96554.78;5025610;28;20241;-51
2023/12/11 08:58:24;;;;;;;1.83;1.40;;;11.10;77.70;;;12.45;58.62;96561.81;5026079;28;20045;-53
2023/12/11 09:00:52;;;;;;;1.65;1.30;;;11.20;78.00;;;12.54;58.39;96570.44;5025724;28;20056;-54
2023/12/11 09:03:21;;;;;;;1.65;0.60;;;11.30;78.00;;;12.58;57.96;96577.03;5023659;28;20632;-49
2023/12/11 09:05:48;;;;;;;0.93;0.73;;;11.40;77.10;;;12.59;58.13;96562.69;5025865;28;20048;-53
2023/12/11 09:08:16;;;;;;;3.25;1.25;;;11.40;76.70;;;12.56;57.94;96565.72;5028621;28;20539;-53
2023/12/11 09:10:44;;;;;;;2.20;0.82;;;11.30;76.20;;;12.60;57.82;96575.84;5027363;28;20076;-53
2023/12/11 09:13:11;;;;;;;1.65;1.10;;;11.30;76.30;;;12.62;57.83;96567.63;5030260;28;20056;-53
2023/12/11 09:15:39;;;;;;;2.38;0.85;;;11.30;76.70;;;12.65;57.77;96564.53;5028610;28;20045;-53
2023/12/11 09:18:07;;;;;;;1.83;0.73;;;11.40;76.90;;;12.64;57.54;96549.56;5028115;28;20041;-50
2023/12/11 09:20:38;;;;;;;2.10;1.07;;;11.30;76.50;;;12.65;57.45;96547.72;5029722;28;20060;-52
2023/12/11 09:23:07;;;;;;;0.85;0.70;;;11.30;76.20;;;12.66;57.38;96552.00;5030319;28;20049;-53
2023/12/11 09:25:34;;;;;;;2.00;1.08;;;11.30;75.70;;;12.65;57.04;96564.53;5030193;28;20374;-51
2023/12/11 09:28:04;;;;;;;0.77;0.60;;;11.30;76.00;;;12.57;56.69;96570.06;5029091;28;20042;-51
2023/12/11 09:30:32;;;;;;;3.85;1.08;;;11.20;75.20;;;12.45;56.40;96569.81;5029576;28;20042;-54
2023/12/11 09:32:59;;;;;;;6.68;2.13;;;11.20;74.30;;;12.50;56.34;96571.88;5030396;28;20049;-52
2023/12/11 09:35:27;;;;;;;2.38;0.77;;;11.20;74.10;;;12.48;56.47;96574.75;5028929;28;20052;-53
2023/12/11 09:37:55;;;;;;;2.88;0.90;;;11.20;73.70;;;12.45;56.24;96561.00;5029223;28;20052;-50
2023/12/11 09:40:23;;;;;;;6.18;1.08;;;11.30;73.20;;;12.43;56.28;96558.53;5028813;28;20049;-53
2023/12/11 09:42:51;;;;;;;1.50;0.55;;;11.30;73.70;;;12.38;56.52;96571.63;5027319;28;20133;-53
2023/12/11 09:45:21;;;;;;;2.47;1.15;;;11.30;72.70;;;12.45;56.44;96561.00;5029567;28;20049;-50
2023/12/11 09:47:54;;;;;;;2.28;1.00;;;11.30;73.70;;;12.51;56.18;96560.19;5028585;28;20393;-54
2023/12/11 09:50:38;;;;;;;1.40;0.88;;;11.40;72.50;;;12.60;56.06;96564.31;5027376;28;20053;-53
2023/12/11 09:53:06;;;;;;;3.80;1.00;;;11.40;73.00;;;12.60;55.98;96550.97;5028953;28;20044;-53
2023/12/11 09:55:34;;;;;;;1.48;0.80;;;11.50;72.80;;;12.69;55.88;96557.78;5029643;28;20044;-53
2023/12/11 09:58:03;;;;;;;2.25;0.98;;;11.60;72.60;;;12.77;55.66;96546.91;5026910;28;20049;-51
2023/12/11 10:00:32;;;;;;;3.60;0.82;;;11.60;72.60;;;12.72;55.43;96533.34;5027933;28;20046;-53
2023/12/11 10:03:05;;;;;;;2.28;0.80;;;11.60;71.80;;;12.57;55.28;96540.69;5027682;28;20041;-53
2023/12/11 10:05:35;;;;;;;2.70;0.90;;;11.70;70.60;;;12.71;55.54;96549.56;5027769;28;20045;-52
2023/12/11 10:08:03;;;;;;;2.17;1.02;;;11.80;71.10;;;12.59;55.63;96554.66;5028867;28;20056;-52
2023/12/11 10:10:33;;;;;;;2.10;1.08;;;11.80;70.10;;;12.65;55.25;96548.53;5027006;28;20045;-52
2023/12/11 10:13:01;;;;;;;3.08;0.90;;;11.80;70.20;;;12.58;54.40;96556.53;5028266;28;20053;-54
2023/12/11 10:15:35;;;;;;;3.17;1.10;;;11.80;68.50;;;12.65;54.89;96566.41;5029038;28;20504;-53
2023/12/11 10:18:08;;;;;;;2.03;0.90;;;11.80;69.00;;;12.69;54.78;96555.09;5028971;28;20048;-50
2023/12/11 10:20:39;;;;;;;2.95;1.70;;;11.80;69.50;;;12.73;54.94;96563.53;5024139;28;20046;-50
2023/12/11 10:23:15;;;;;;;2.90;1.10;;;11.80;70.50;;;12.70;54.93;96551.41;5029089;28;20052;-53